Aérodrome :
LOGIN :

S'inscrire | Disclaimer

   EN    FR    IT 

 










Légende :    VFR   VFR Marginal   IFR   IFR Intensif   IFR Très Intensif
Visi : 
Plafond : 
>= 8 km
>= 3000ft
5 à 8 km
1000 à 3000 ft
1500m à 5 km
500 à 1000 ft
800 à 1500m
200 à 500 ft
< 800m
< 200 ft
Symboles :   Orages  Brouillard  Fortes neiges  Fortes précipitations  Vent > 20 kt
SIGMETs :   Divers  Orages  Givrage  Turbulence  Onde Orograph.  Cendres Volcan.







- Altitude de l'aérodrome : 289 ft
- Voir les cartes d'approche


LFYR - Romorantin Pruniers

DERNIER METAR :
  • 211030Z AUTO 22005KT 180V250 2400 -DZ BR BKN005 BKN017 OVC027 08/08 Q1018

METARs EXPIRÉS :
  • 211000Z AUTO 23004KT 9999 -DZ FEW006 BKN014 BKN033 08/07 Q1018
  • 210930Z AUTO 22004KT 3300 -RA BR FEW011 SCT030 OVC037 08/07 Q1018
  • 210900Z AUTO VRB01KT 7000 -RA OVC038 08/07 Q1018
  • 210830Z AUTO 22003KT 7000 -RA OVC045 08/07 Q1018
  • 210800Z AUTO VRB02KT 8000 -RA ///TCU 08/06 Q1017
  • 210730Z AUTO 23004KT 200V260 8000 -RA FEW040/// BKN060/// OVC084/// ///TCU 08/06 Q1017

Prévision TAF périmée.
Pas de NOTAMs connus pour ce terrain.
3 SIGMETs publiés pour la FIR Paris (LFFF) :
 
Givrage fort
LFFF SIGMET 3 VALID 210900/211300 LFPW
LFFF PARIS FIR/UIR SEV ICE OBS AT 0900Z S OF N4700 AND E OF E00345 FL140/240 MOV E 10KT WKN=
Annulation du SIGMET 1 
LFFF SIGMET 2 VALID 210855/211200 LFPW
LFFF PARIS FIR/UIR CNL SIGMET 1 210800/211200=
SIGMET 1  ANNULÉ :
Givrage fort
LFFF SIGMET 1 VALID 210800/211200 LFPW
LFFF PARIS FIR/UIR SEV ICE FCST WI N4845 W00015 - N5000 W00015 - N5030 E00045 - N4830 E00330 - N4730 E00130 - N4845 W00015 FL050/150 MOV NE 15KT NC=



MET'MAP, la Météo Aéronautique d'un coup d'oeil ! - Copyright ORBIFLY Décembre 2007 - Disclaimer

ORBIFLY MET'MAP TEAM :

Programmation & Développement : Alexandra Zaïnal
Conception & Développement : Baudouin d'Aumeries
Co-Programmation & Développement : Marc-Olivier Méhu
Soutien technique & logistique : Manuel Goepfert

Contact : metmap@orbifly.com




SOURCES & CREDITS :

   NOAA